Time;durP1;ratioP1;P1;durP2;ratioP2;P2;SDS_P1;SDS_P2;PMS_P1;PMS_P2;Temp;Humidity;BMP_temperature;BMP_pressure;BME280_temperature;BME280_humidity;BME280_pressure;Samples;Min_cycle;Max_cycle;Signal;HPM_P1;HPM_P2
2023/08/20 00:00:16;;;;;;;11.33;10.13;;;27.30;99.90;;;;;;4964798;28;20980;-72
2023/08/20 00:02:43;;;;;;;10.43;9.47;;;27.30;99.90;;;;;;4961298;28;20442;-72
2023/08/20 00:05:09;;;;;;;11.70;10.10;;;27.30;99.90;;;;;;4962915;28;20825;-72
2023/08/20 00:07:35;;;;;;;10.37;9.47;;;27.30;99.90;;;;;;4956448;28;20426;-72
2023/08/20 00:10:02;;;;;;;11.83;10.73;;;27.30;99.90;;;;;;4960633;28;20492;-72
2023/08/20 00:12:28;;;;;;;14.80;10.10;;;27.30;99.90;;;;;;4966425;28;20450;-72
2023/08/20 00:15:04;;;;;;;10.17;9.20;;;27.20;99.90;;;;;;4962114;28;20492;-73
2023/08/20 00:17:34;;;;;;;10.87;9.87;;;27.20;99.90;;;;;;4959323;28;20627;-73
2023/08/20 00:20:00;;;;;;;13.23;9.93;;;27.20;99.90;;;;;;4956040;28;20496;-73
2023/08/20 00:22:27;;;;;;;11.20;9.63;;;27.20;99.90;;;;;;4963279;28;21723;-73
2023/08/20 00:24:54;;;;;;;13.50;9.87;;;27.20;99.90;;;;;;4960867;28;20453;-73
2023/08/20 00:27:20;;;;;;;11.47;10.33;;;27.20;99.90;;;;;;4964383;28;20465;-73
2023/08/20 00:29:46;;;;;;;10.37;9.40;;;27.20;99.90;;;;;;4956321;28;20441;-73
2023/08/20 00:32:12;;;;;;;11.40;10.30;;;27.20;99.90;;;;;;4962581;28;20434;-73
2023/08/20 00:34:37;;;;;;;11.13;10.07;;;27.20;99.90;;;;;;4960247;28;20210;-73
2023/08/20 00:37:03;;;;;;;11.20;9.10;;;27.10;99.90;;;;;;4959691;28;20829;-73
2023/08/20 00:39:29;;;;;;;11.27;10.17;;;27.10;99.90;;;;;;4964489;28;20207;-73
2023/08/20 00:41:55;;;;;;;11.40;10.03;;;27.10;99.90;;;;;;4959245;28;20207;-73
2023/08/20 00:44:21;;;;;;;11.20;9.53;;;27.10;99.90;;;;;;4960931;28;20446;-73
2023/08/20 00:46:47;;;;;;;10.00;9.20;;;27.10;99.90;;;;;;4960763;28;20186;-73
2023/08/20 00:49:12;;;;;;;9.10;8.40;;;27.10;99.90;;;;;;4963512;28;20183;-73
2023/08/20 00:51:38;;;;;;;11.27;10.17;;;27.10;99.90;;;;;;4962389;28;20720;-73
2023/08/20 00:54:05;;;;;;;11.40;9.90;;;27.10;99.90;;;;;;4962702;28;20718;-73
2023/08/20 00:56:30;;;;;;;12.13;10.70;;;27.00;99.90;;;;;;4961168;28;20512;-73
2023/08/20 00:58:57;;;;;;;10.70;9.70;;;27.10;99.90;;;;;;4961978;28;20837;-73
2023/08/20 01:01:23;;;;;;;10.57;9.57;;;27.00;99.90;;;;;;4964078;28;20202;-73
2023/08/20 01:03:48;;;;;;;11.37;10.20;;;27.00;99.90;;;;;;4961660;28;20441;-73
2023/08/20 01:06:17;;;;;;;10.03;9.13;;;27.00;99.90;;;;;;4961115;28;20867;-73
2023/08/20 01:08:47;;;;;;;10.47;9.47;;;27.00;99.90;;;;;;4961900;28;20287;-73
2023/08/20 01:11:18;;;;;;;11.47;10.13;;;27.00;99.90;;;;;;4958949;28;20518;-73
2023/08/20 01:13:43;;;;;;;10.70;9.70;;;27.00;99.90;;;;;;4960110;28;20488;-73
2023/08/20 01:16:09;;;;;;;12.00;9.63;;;27.00;99.90;;;;;;4966308;28;20469;-73
2023/08/20 01:18:34;;;;;;;11.20;10.10;;;27.00;99.90;;;;;;4966406;28;20179;-73
2023/08/20 01:21:15;;;;;;;11.07;9.87;;;27.00;99.90;;;;;;4963796;28;20209;-73
2023/08/20 01:23:44;;;;;;;10.43;9.43;;;27.00;99.90;;;;;;4965667;28;20186;-73
2023/08/20 01:26:54;;;;;;;10.90;9.80;;;27.00;99.90;;;;;;4968645;28;20443;-73
2023/08/20 01:29:20;;;;;;;10.73;9.60;;;26.90;99.90;;;;;;4963468;28;20439;-73
2023/08/20 01:31:46;;;;;;;10.00;9.10;;;26.90;99.90;;;;;;4963278;28;20460;-72
2023/08/20 01:34:13;;;;;;;11.63;10.07;;;26.90;99.90;;;;;;4964435;28;20214;-72
2023/08/20 01:36:38;;;;;;;11.43;9.17;;;26.90;99.90;;;;;;4964657;28;20474;-72
2023/08/20 01:39:04;;;;;;;11.17;10.03;;;26.90;99.90;;;;;;4961116;28;20435;-71
2023/08/20 01:41:30;;;;;;;13.17;11.60;;;26.90;99.90;;;;;;4964921;28;20179;-72
2023/08/20 01:43:56;;;;;;;11.40;10.30;;;26.80;99.90;;;;;;4962906;28;20557;-71
2023/08/20 01:46:21;;;;;;;11.83;9.37;;;26.90;99.90;;;;;;4965010;28;20437;-72
2023/08/20 01:48:47;;;;;;;12.60;11.03;;;26.80;99.90;;;;;;4963571;28;20193;-72
2023/08/20 01:51:13;;;;;;;14.13;10.57;;;26.80;99.90;;;;;;4959457;28;20548;-72
2023/08/20 01:53:38;;;;;;;11.20;9.80;;;26.80;99.90;;;;;;4963139;28;20662;-72
2023/08/20 01:56:09;;;;;;;15.13;10.13;;;26.70;99.90;;;;;;4961573;28;20218;-72
2023/08/20 01:58:36;;;;;;;11.70;9.43;;;26.70;99.90;;;;;;4962616;28;20281;-72
2023/08/20 02:01:01;;;;;;;11.50;10.40;;;26.70;99.90;;;;;;4963361;28;20433;-74
2023/08/20 02:03:27;;;;;;;10.43;9.53;;;26.70;99.90;;;;;;4967232;28;20436;-73
2023/08/20 02:05:53;;;;;;;11.40;10.00;;;26.60;99.90;;;;;;4963191;28;20203;-71
2023/08/20 02:08:18;;;;;;;11.43;10.33;;;26.60;99.90;;;;;;4962512;28;20290;-72
2023/08/20 02:10:44;;;;;;;11.20;10.07;;;26.60;99.90;;;;;;4967868;28;20194;-72
2023/08/20 02:13:09;;;;;;;11.17;10.10;;;26.60;99.90;;;;;;4963134;28;20202;-72
2023/08/20 02:15:35;;;;;;;10.90;9.97;;;26.60;99.90;;;;;;4961329;28;20265;-72
2023/08/20 02:18:01;;;;;;;11.23;10.07;;;26.50;99.90;;;;;;4963911;28;20193;-72
2023/08/20 02:20:27;;;;;;;12.00;10.90;;;26.50;99.90;;;;;;4962359;28;20178;-74
2023/08/20 02:22:52;;;;;;;12.17;10.73;;;26.50;99.90;;;;;;4960303;28;20439;-71
2023/08/20 02:25:18;;;;;;;11.53;10.33;;;26.40;99.90;;;;;;4960563;28;20906;-71
2023/08/20 02:27:43;;;;;;;11.73;10.57;;;26.40;99.90;;;;;;4961543;28;20195;-71
2023/08/20 02:30:10;;;;;;;12.10;10.90;;;26.40;99.90;;;;;;4961358;28;20668;-72
2023/08/20 02:32:35;;;;;;;12.00;10.90;;;26.30;99.90;;;;;;4964142;28;20170;-72
2023/08/20 02:35:01;;;;;;;13.60;11.50;;;26.30;99.90;;;;;;4960584;28;20468;-72
2023/08/20 02:37:26;;;;;;;11.37;10.40;;;26.20;99.90;;;;;;4964843;28;20768;-74
2023/08/20 02:39:52;;;;;;;12.73;10.97;;;26.20;99.90;;;;;;4960498;28;20213;-74
2023/08/20 02:42:17;;;;;;;12.33;11.00;;;26.20;99.90;;;;;;4968747;28;20192;-72
2023/08/20 02:44:43;;;;;;;15.60;9.90;;;26.20;99.90;;;;;;4963420;28;20209;-71
2023/08/20 02:47:09;;;;;;;11.67;10.50;;;26.20;99.90;;;;;;4957525;28;20462;-71
2023/08/20 02:49:34;;;;;;;12.50;11.20;;;26.20;99.90;;;;;;4958637;28;20273;-71
2023/08/20 02:52:00;;;;;;;12.17;10.70;;;26.20;99.90;;;;;;4957159;28;20212;-71
2023/08/20 02:54:25;;;;;;;12.30;11.07;;;26.20;99.90;;;;;;4962807;28;20214;-72
2023/08/20 02:56:51;;;;;;;11.20;10.20;;;26.10;99.90;;;;;;4961610;28;20225;-72
2023/08/20 02:59:17;;;;;;;13.17;10.23;;;26.10;99.90;;;;;;4965099;28;20253;-72
2023/08/20 03:01:42;;;;;;;12.07;10.57;;;26.00;99.90;;;;;;4962193;28;20585;-72
2023/08/20 03:04:08;;;;;;;11.67;10.50;;;26.00;99.90;;;;;;4960749;28;21208;-72
2023/08/20 03:06:33;;;;;;;11.27;10.10;;;26.00;99.90;;;;;;4964429;28;20233;-72
2023/08/20 03:08:59;;;;;;;11.73;10.53;;;26.00;99.90;;;;;;4960070;28;20196;-72
2023/08/20 03:11:24;;;;;;;13.63;10.87;;;26.00;99.90;;;;;;4964856;28;20213;-72
2023/08/20 03:13:50;;;;;;;11.60;10.50;;;26.00;99.90;;;;;;4959396;28;20206;-72
2023/08/20 03:16:15;;;;;;;12.00;10.73;;;26.00;99.90;;;;;;4963375;28;20202;-72
2023/08/20 03:18:41;;;;;;;10.73;9.73;;;26.00;99.90;;;;;;4964414;28;20271;-72
2023/08/20 03:21:06;;;;;;;12.83;11.50;;;25.90;99.90;;;;;;4960976;28;20175;-72
2023/08/20 03:23:32;;;;;;;11.37;10.27;;;25.90;99.90;;;;;;4961098;28;20726;-72
2023/08/20 03:25:59;;;;;;;10.93;9.93;;;25.90;99.90;;;;;;4957541;28;20202;-72
2023/08/20 03:28:24;;;;;;;11.73;10.63;;;25.90;99.90;;;;;;4961489;28;20504;-72
2023/08/20 03:30:50;;;;;;;12.73;10.90;;;25.90;99.90;;;;;;4961943;28;20434;-72
2023/08/20 03:33:16;;;;;;;12.63;11.20;;;25.90;99.90;;;;;;4962809;28;20696;-72
2023/08/20 03:35:42;;;;;;;11.67;10.63;;;25.90;99.90;;;;;;4962538;28;20210;-72
2023/08/20 03:38:08;;;;;;;12.03;10.73;;;25.90;99.90;;;;;;4962104;28;20430;-72
2023/08/20 03:40:33;;;;;;;12.70;11.33;;;25.90;99.90;;;;;;4963193;28;20186;-72
2023/08/20 03:42:59;;;;;;;11.23;10.10;;;25.90;99.90;;;;;;4960793;28;20205;-72
2023/08/20 03:45:25;;;;;;;12.37;11.20;;;25.90;99.90;;;;;;4961439;28;20600;-73
2023/08/20 03:47:51;;;;;;;11.40;10.30;;;25.90;99.90;;;;;;4960167;28;20193;-72
2023/08/20 03:50:17;;;;;;;11.00;9.90;;;25.90;99.90;;;;;;4960655;28;20434;-72
2023/08/20 03:52:42;;;;;;;11.37;10.27;;;25.90;99.90;;;;;;4962418;28;20182;-72
2023/08/20 03:55:08;;;;;;;13.17;11.97;;;25.90;99.90;;;;;;4962629;28;20570;-72
2023/08/20 03:57:34;;;;;;;12.10;11.00;;;25.90;99.90;;;;;;4961056;28;20731;-72
2023/08/20 03:59:59;;;;;;;14.00;11.50;;;25.90;99.90;;;;;;4958592;28;20369;-72
2023/08/20 04:02:25;;;;;;;10.77;9.67;;;25.90;99.90;;;;;;4965492;28;20174;-72
2023/08/20 04:04:50;;;;;;;11.93;10.83;;;25.90;99.90;;;;;;4967900;28;20206;-73
2023/08/20 04:07:18;;;;;;;10.40;9.43;;;25.90;99.90;;;;;;4959804;28;20187;-72
2023/08/20 04:09:43;;;;;;;11.67;10.57;;;25.90;99.90;;;;;;4956357;28;20558;-72
2023/08/20 04:12:09;;;;;;;11.27;10.20;;;25.90;99.90;;;;;;4959778;28;20422;-72
2023/08/20 04:14:34;;;;;;;11.53;10.43;;;25.80;99.90;;;;;;4960927;28;20221;-72
2023/08/20 04:17:00;;;;;;;11.33;10.13;;;25.90;99.90;;;;;;4959633;28;20210;-72
2023/08/20 04:19:26;;;;;;;14.73;9.90;;;25.90;99.90;;;;;;4978968;28;20272;-72
2023/08/20 04:21:51;;;;;;;12.23;10.60;;;25.90;99.90;;;;;;4961753;28;20175;-73
2023/08/20 04:24:17;;;;;;;11.97;10.90;;;25.90;99.90;;;;;;4959206;28;21927;-72
2023/08/20 04:26:43;;;;;;;14.40;10.47;;;25.80;99.90;;;;;;4966013;28;20202;-72
2023/08/20 04:29:09;;;;;;;11.30;10.20;;;25.80;99.90;;;;;;4961518;28;20198;-72
2023/08/20 04:31:35;;;;;;;11.30;10.20;;;25.80;99.90;;;;;;4959798;28;20495;-73
2023/08/20 04:34:00;;;;;;;10.93;9.90;;;25.80;99.90;;;;;;4962286;28;20194;-73
2023/08/20 04:36:26;;;;;;;11.30;10.13;;;25.80;99.90;;;;;;4960608;28;20202;-72
2023/08/20 04:38:51;;;;;;;10.80;9.80;;;25.80;99.90;;;;;;4958413;28;20228;-73
2023/08/20 04:41:17;;;;;;;11.33;10.23;;;25.80;99.90;;;;;;4961960;28;20789;-72
2023/08/20 04:43:42;;;;;;;16.03;13.90;;;25.80;99.90;;;;;;4963646;28;20667;-72
2023/08/20 04:46:08;;;;;;;11.47;10.37;;;25.80;99.90;;;;;;4959579;28;20673;-72
2023/08/20 04:48:33;;;;;;;12.20;11.10;;;25.80;99.90;;;;;;4963836;28;20281;-72
2023/08/20 04:51:00;;;;;;;12.07;10.47;;;25.80;99.90;;;;;;4959755;28;20444;-72
2023/08/20 04:53:26;;;;;;;12.73;11.43;;;25.70;99.90;;;;;;4958951;28;20178;-72
2023/08/20 04:55:51;;;;;;;11.10;10.10;;;25.70;99.90;;;;;;4955138;28;20536;-72
2023/08/20 04:58:17;;;;;;;12.30;11.03;;;25.60;99.90;;;;;;4964240;28;20182;-72
2023/08/20 05:00:42;;;;;;;11.30;10.10;;;25.60;99.90;;;;;;4960836;28;20186;-73
2023/08/20 05:03:08;;;;;;;12.57;11.30;;;25.60;99.90;;;;;;4960271;28;20515;-73
2023/08/20 05:05:34;;;;;;;11.50;10.40;;;25.70;99.90;;;;;;4962881;28;20237;-72
2023/08/20 05:07:59;;;;;;;11.93;10.87;;;25.70;99.90;;;;;;4962097;28;20186;-72
2023/08/20 05:10:25;;;;;;;11.40;10.30;;;25.80;99.90;;;;;;4967971;28;20178;-72
2023/08/20 05:12:51;;;;;;;11.43;10.27;;;25.80;99.90;;;;;;4957394;28;20544;-72
2023/08/20 05:15:16;;;;;;;10.03;9.13;;;25.80;99.90;;;;;;4965301;28;20281;-72
2023/08/20 05:17:42;;;;;;;11.67;10.57;;;25.80;99.90;;;;;;4964285;28;20559;-72
2023/08/20 05:20:09;;;;;;;11.87;10.57;;;25.80;99.90;;;;;;4958474;28;20190;-72
2023/08/20 05:22:34;;;;;;;12.83;11.60;;;25.80;99.90;;;;;;4967541;28;20530;-72
2023/08/20 05:25:00;;;;;;;12.37;11.30;;;25.80;99.90;;;;;;4964968;28;20462;-72
2023/08/20 05:27:25;;;;;;;14.10;11.60;;;25.90;99.90;;;;;;4963445;28;20189;-72
2023/08/20 05:29:51;;;;;;;13.43;11.13;;;25.80;99.90;;;;;;4963708;28;20190;-72
2023/08/20 05:32:17;;;;;;;11.73;10.73;;;25.90;99.90;;;;;;4965071;28;20190;-72
2023/08/20 05:34:42;;;;;;;12.70;11.40;;;25.90;99.90;;;;;;4962657;28;20345;-72
2023/08/20 05:37:08;;;;;;;12.47;11.17;;;25.90;99.90;;;;;;4963912;28;20206;-72
2023/08/20 05:39:40;;;;;;;12.13;11.03;;;26.00;99.90;;;;;;4966274;28;20183;-73
2023/08/20 05:42:05;;;;;;;14.70;10.33;;;26.00;99.90;;;;;;4961061;28;20233;-73
2023/08/20 05:44:31;;;;;;;11.53;10.20;;;26.00;99.90;;;;;;4963256;28;20458;-73
2023/08/20 05:46:57;;;;;;;11.40;10.27;;;26.10;99.90;;;;;;4961308;28;20189;-73
2023/08/20 05:49:23;;;;;;;12.47;10.20;;;26.10;99.90;;;;;;4965141;28;20186;-73
2023/08/20 05:51:48;;;;;;;15.23;11.40;;;26.10;99.90;;;;;;4966015;28;20690;-73
2023/08/20 05:54:14;;;;;;;11.40;9.57;;;26.20;99.90;;;;;;4961594;28;20275;-73
2023/08/20 05:56:39;;;;;;;16.43;10.73;;;26.20;99.90;;;;;;4966679;28;20704;-73
2023/08/20 05:59:05;;;;;;;12.23;10.23;;;26.20;99.90;;;;;;4961427;28;20585;-73
2023/08/20 06:01:30;;;;;;;10.70;9.50;;;26.20;99.90;;;;;;4959973;28;20202;-73
2023/08/20 06:03:56;;;;;;;11.40;10.40;;;26.20;99.90;;;;;;4962750;28;20648;-73
2023/08/20 06:06:22;;;;;;;11.80;9.97;;;26.20;99.90;;;;;;4965150;28;20194;-73
2023/08/20 06:08:47;;;;;;;11.17;10.07;;;26.20;99.90;;;;;;4959543;28;20194;-73
2023/08/20 06:11:13;;;;;;;18.53;10.37;;;26.20;99.90;;;;;;4960968;28;20190;-73
2023/08/20 06:13:39;;;;;;;12.17;11.07;;;26.20;99.90;;;;;;4962934;28;20894;-73
2023/08/20 06:16:06;;;;;;;11.47;10.30;;;26.20;99.90;;;;;;4961310;28;20680;-73
2023/08/20 06:18:32;;;;;;;11.23;10.30;;;26.20;99.90;;;;;;4964050;28;20270;-73
2023/08/20 06:20:57;;;;;;;11.00;9.90;;;26.20;99.90;;;;;;4963198;28;20524;-73
2023/08/20 06:23:23;;;;;;;13.23;10.90;;;26.20;99.90;;;;;;4963192;28;20222;-73
2023/08/20 06:25:50;;;;;;;11.10;10.00;;;26.20;99.90;;;;;;4963949;28;20273;-73
2023/08/20 06:28:16;;;;;;;12.43;11.30;;;26.20;99.90;;;;;;4962332;28;20672;-73
2023/08/20 06:30:42;;;;;;;10.70;9.77;;;26.20;99.90;;;;;;4961376;28;20437;-73
2023/08/20 06:33:08;;;;;;;12.10;10.53;;;26.20;99.90;;;;;;4961533;28;20259;-73
2023/08/20 06:35:34;;;;;;;12.87;10.80;;;26.20;99.90;;;;;;4963440;28;20348;-73
2023/08/20 06:37:59;;;;;;;10.83;9.80;;;26.20;99.90;;;;;;4960080;28;20445;-73
2023/08/20 06:40:25;;;;;;;10.40;9.30;;;26.20;99.90;;;;;;4958754;28;20500;-73
2023/08/20 06:42:50;;;;;;;11.47;10.23;;;26.20;99.90;;;;;;4961513;28;20911;-73
2023/08/20 06:45:16;;;;;;;10.43;9.40;;;26.20;99.90;;;;;;4963575;28;20707;-73
2023/08/20 06:47:42;;;;;;;10.50;9.37;;;26.20;99.90;;;;;;4960096;28;20683;-73
2023/08/20 06:50:07;;;;;;;12.60;10.20;;;26.30;99.90;;;;;;4959398;28;20529;-72
2023/08/20 06:52:33;;;;;;;10.73;9.10;;;26.30;99.90;;;;;;4964486;28;20832;-73
2023/08/20 06:54:59;;;;;;;10.40;9.40;;;26.30;99.90;;;;;;4958993;28;20306;-73
2023/08/20 06:57:24;;;;;;;10.23;9.17;;;26.30;99.90;;;;;;4960228;28;20625;-73
2023/08/20 06:59:50;;;;;;;11.43;9.27;;;26.30;99.90;;;;;;4959968;28;20194;-72
2023/08/20 07:02:15;;;;;;;10.90;9.70;;;26.40;99.90;;;;;;4962229;28;20182;-73
2023/08/20 07:04:41;;;;;;;14.73;13.23;;;26.40;99.90;;;;;;4965619;28;20211;-72
2023/08/20 07:07:07;;;;;;;11.83;10.73;;;26.40;99.90;;;;;;4958441;28;20294;-72
2023/08/20 07:09:33;;;;;;;13.70;11.50;;;26.50;99.90;;;;;;4959978;28;20182;-72
2023/08/20 07:11:59;;;;;;;10.10;8.80;;;26.50;99.90;;;;;;4962818;28;20503;-72
2023/08/20 07:14:24;;;;;;;14.40;9.80;;;26.60;99.90;;;;;;4960026;28;20211;-72
2023/08/20 07:16:50;;;;;;;15.00;13.60;;;26.60;99.90;;;;;;4964197;28;20588;-72
2023/08/20 07:19:15;;;;;;;12.93;10.40;;;26.60;99.90;;;;;;4962221;28;20210;-72
2023/08/20 07:21:41;;;;;;;13.50;12.20;;;26.60;99.90;;;;;;4964089;28;20245;-73
2023/08/20 07:24:07;;;;;;;21.70;19.47;;;26.70;99.90;;;;;;4958323;28;20281;-72
2023/08/20 07:26:33;;;;;;;11.77;10.60;;;26.60;99.90;;;;;;4965383;28;20221;-72
2023/08/20 07:28:59;;;;;;;11.97;10.77;;;26.70;99.90;;;;;;4957632;28;21011;-72
2023/08/20 07:31:29;;;;;;;11.47;10.27;;;26.70;99.90;;;;;;4962933;28;20281;-72
2023/08/20 07:33:56;;;;;;;12.90;9.67;;;26.80;99.90;;;;;;4960839;28;21169;-72
2023/08/20 07:36:22;;;;;;;9.93;9.00;;;26.80;99.90;;;;;;4960082;28;20466;-72
2023/08/20 07:38:48;;;;;;;10.60;9.60;;;26.80;99.90;;;;;;4964905;28;20931;-72
2023/08/20 07:41:14;;;;;;;11.43;10.17;;;26.80;99.90;;;;;;4962681;28;20437;-72
2023/08/20 07:43:41;;;;;;;11.90;9.50;;;26.90;99.90;;;;;;4959954;28;20193;-72
2023/08/20 07:46:08;;;;;;;11.67;10.47;;;26.90;99.90;;;;;;4961606;28;20551;-72
2023/08/20 07:48:34;;;;;;;14.83;11.60;;;26.90;99.90;;;;;;4963361;28;20448;-72
2023/08/20 07:51:01;;;;;;;11.83;10.67;;;27.00;99.90;;;;;;4963439;28;20513;-72
2023/08/20 07:53:27;;;;;;;10.50;9.50;;;27.00;99.90;;;;;;4959926;28;20447;-73
2023/08/20 07:55:52;;;;;;;11.97;10.87;;;27.10;99.90;;;;;;4958390;28;20500;-72
2023/08/20 07:58:18;;;;;;;14.17;9.93;;;27.10;99.90;;;;;;4956933;28;20186;-72
2023/08/20 08:00:44;;;;;;;10.13;9.00;;;27.10;99.90;;;;;;4965347;28;20206;-73
2023/08/20 08:03:09;;;;;;;11.17;8.87;;;27.20;99.90;;;;;;4965848;28;20194;-72
2023/08/20 08:05:36;;;;;;;11.20;9.50;;;27.20;99.90;;;;;;4957791;28;20269;-73
2023/08/20 08:08:02;;;;;;;10.97;9.23;;;27.20;99.90;;;;;;4960776;28;20191;-72
2023/08/20 08:10:28;;;;;;;10.03;9.13;;;27.30;99.90;;;;;;4960658;28;20889;-72
2023/08/20 08:12:54;;;;;;;10.37;9.20;;;27.30;99.90;;;;;;4964537;28;20410;-73
2023/08/20 08:15:19;;;;;;;10.50;9.40;;;27.30;99.90;;;;;;4959635;28;20871;-72
2023/08/20 08:17:45;;;;;;;19.13;10.50;;;27.30;99.90;;;;;;4960842;28;20225;-72
2023/08/20 08:20:11;;;;;;;12.60;9.73;;;27.30;99.90;;;;;;4960355;28;20818;-72
2023/08/20 08:22:36;;;;;;;11.13;9.83;;;27.40;99.90;;;;;;4960649;28;20181;-72
2023/08/20 08:25:02;;;;;;;9.80;9.00;;;27.40;99.90;;;;;;4961632;28;20602;-72
2023/08/20 08:27:28;;;;;;;11.13;10.13;;;27.50;99.90;;;;;;4959027;28;20359;-72
2023/08/20 08:29:53;;;;;;;17.00;15.40;;;27.50;99.90;;;;;;4962124;28;20186;-72
2023/08/20 08:32:19;;;;;;;14.20;12.70;;;27.50;99.90;;;;;;4959201;28;20699;-72
2023/08/20 08:34:44;;;;;;;9.70;8.80;;;27.60;99.90;;;;;;4959690;28;20215;-72
2023/08/20 08:37:10;;;;;;;10.27;9.27;;;27.70;99.90;;;;;;4960518;28;20204;-73
2023/08/20 08:39:36;;;;;;;11.23;9.70;;;27.70;99.90;;;;;;4960610;28;20266;-73
2023/08/20 08:42:07;;;;;;;12.17;10.93;;;27.70;99.90;;;;;;4959831;28;20230;-73
2023/08/20 08:44:33;;;;;;;9.40;8.60;;;27.70;99.90;;;;;;4963205;28;20904;-73
2023/08/20 08:46:59;;;;;;;12.43;8.83;;;27.80;99.90;;;;;;4963536;28;20433;-73
2023/08/20 08:49:26;;;;;;;10.27;9.27;;;27.80;99.90;;;;;;4959161;28;20442;-73
2023/08/20 08:51:54;;;;;;;10.70;9.80;;;27.90;99.90;;;;;;4958474;28;20174;-73
2023/08/20 08:54:21;;;;;;;11.90;9.33;;;27.90;99.90;;;;;;4958112;28;21105;-72
2023/08/20 08:56:46;;;;;;;10.80;9.43;;;28.00;99.90;;;;;;4957763;28;20512;-72
2023/08/20 08:59:14;;;;;;;11.43;10.33;;;28.00;99.90;;;;;;4961335;28;20513;-73
2023/08/20 09:01:41;;;;;;;9.10;8.30;;;28.10;99.90;;;;;;4959117;28;20433;-72
2023/08/20 09:04:07;;;;;;;9.43;8.53;;;28.10;99.90;;;;;;4963557;28;20521;-72
2023/08/20 09:06:52;;;;;;;9.50;8.70;;;28.20;99.90;;;;;;4959440;28;20914;-72
2023/08/20 09:09:20;;;;;;;9.80;8.90;;;28.20;99.90;;;;;;4957093;28;20265;-72
2023/08/20 09:11:47;;;;;;;12.83;9.10;;;28.30;99.90;;;;;;4956959;28;20800;-72
2023/08/20 09:14:39;;;;;;;9.87;8.97;;;28.30;99.90;;;;;;4959713;28;20445;-72
2023/08/20 09:17:05;;;;;;;10.07;9.07;;;28.40;99.90;;;;;;4952894;28;20485;-73
2023/08/20 09:19:37;;;;;;;11.43;9.60;;;28.40;99.90;;;;;;4952093;28;20943;-73
2023/08/20 09:22:03;;;;;;;10.27;9.17;;;28.50;99.90;;;;;;4958140;28;20183;-71
2023/08/20 09:24:39;;;;;;;10.30;9.30;;;28.60;99.90;;;;;;4962277;28;20522;-73
2023/08/20 09:27:05;;;;;;;9.87;9.07;;;28.60;99.90;;;;;;4957859;28;20201;-73
2023/08/20 09:29:46;;;;;;;13.60;9.33;;;28.70;99.90;;;;;;4958774;28;20468;-72
2023/08/20 09:32:17;;;;;;;12.50;9.37;;;28.70;99.90;;;;;;4961384;28;20445;-73
2023/08/20 09:34:43;;;;;;;10.20;9.10;;;28.70;99.90;;;;;;4959299;28;20996;-73
2023/08/20 09:37:15;;;;;;;10.40;9.33;;;28.70;99.90;;;;;;4953816;28;20581;-72
2023/08/20 09:39:41;;;;;;;9.67;8.77;;;28.80;99.90;;;;;;4954249;28;20979;-73
2023/08/20 09:42:08;;;;;;;11.37;10.17;;;28.80;99.90;;;;;;4954428;28;20432;-72
2023/08/20 09:44:35;;;;;;;10.30;9.03;;;29.00;99.90;;;;;;4962570;28;20480;-72
2023/08/20 09:47:07;;;;;;;10.50;9.50;;;29.00;99.90;;;;;;4952319;28;20884;-72
2023/08/20 09:49:38;;;;;;;10.03;9.10;;;29.10;99.90;;;;;;4962508;28;20480;-72
2023/08/20 09:52:11;;;;;;;10.33;9.23;;;29.20;99.90;;;;;;4959262;28;20496;-72
2023/08/20 09:54:48;;;;;;;9.73;8.90;;;29.20;99.90;;;;;;4961698;28;20491;-72
2023/08/20 09:57:36;;;;;;;10.33;8.87;;;29.30;99.90;;;;;;4962551;28;20526;-72
2023/08/20 10:00:05;;;;;;;10.37;9.30;;;29.40;99.90;;;;;;4962944;28;20864;-72
2023/08/20 10:02:32;;;;;;;10.10;9.20;;;29.40;99.90;;;;;;4964338;28;20481;-72
2023/08/20 10:05:03;;;;;;;11.20;9.30;;;29.40;99.90;;;;;;4962447;28;20553;-72
2023/08/20 10:07:32;;;;;;;10.30;9.20;;;29.50;99.90;;;;;;4964946;28;20433;-72
2023/08/20 10:10:03;;;;;;;10.90;9.83;;;29.50;99.90;;;;;;4962973;28;20448;-72
2023/08/20 10:12:29;;;;;;;9.90;8.90;;;29.60;99.90;;;;;;4965426;28;20512;-73
2023/08/20 10:14:59;;;;;;;8.80;8.10;;;29.80;99.90;;;;;;4966117;28;20480;-73
2023/08/20 10:17:25;;;;;;;10.27;9.27;;;29.90;99.90;;;;;;4957001;28;20871;-73
2023/08/20 10:19:53;;;;;;;10.03;9.13;;;29.90;99.90;;;;;;4969952;28;20940;-73
2023/08/20 10:22:19;;;;;;;10.37;9.37;;;30.00;99.90;;;;;;4965920;28;20430;-73
2023/08/20 10:24:49;;;;;;;10.90;9.80;;;29.90;99.90;;;;;;4962782;28;20796;-73
2023/08/20 10:27:28;;;;;;;9.47;8.70;;;30.00;99.90;;;;;;4966076;28;20726;-73
2023/08/20 10:29:54;;;;;;;9.97;8.97;;;30.00;99.90;;;;;;4958152;28;20418;-73
2023/08/20 10:32:40;;;;;;;10.97;9.80;;;30.10;99.90;;;;;;4960599;28;20453;-72
2023/08/20 10:35:08;;;;;;;9.53;8.70;;;30.20;99.90;;;;;;4960269;28;20469;-72
2023/08/20 10:37:34;;;;;;;14.90;9.10;;;30.30;99.90;;;;;;4964821;28;20540;-73
2023/08/20 10:39:59;;;;;;;9.43;8.53;;;30.20;99.90;;;;;;4960836;28;20418;-73
2023/08/20 10:42:28;;;;;;;10.00;6.80;;;30.30;99.90;;;;;;4959760;28;20649;-73
2023/08/20 10:45:03;;;;;;;9.50;8.60;;;30.40;99.90;;;;;;4959643;28;20246;-73
2023/08/20 10:47:42;;;;;;;8.50;7.70;;;30.40;99.90;;;;;;4956691;28;20537;-73
2023/08/20 10:50:30;;;;;;;8.33;7.63;;;30.50;99.90;;;;;;4966708;28;20452;-73
2023/08/20 10:52:56;;;;;;;7.13;6.53;;;30.60;99.90;;;;;;4967178;28;20449;-73
2023/08/20 10:55:24;;;;;;;8.00;7.20;;;30.70;99.90;;;;;;4957485;28;21051;-73
2023/08/20 10:57:59;;;;;;;9.80;8.10;;;30.70;99.90;;;;;;4966557;28;20509;-73
2023/08/20 11:00:25;;;;;;;9.20;7.77;;;30.80;99.90;;;;;;4962610;28;20824;-73
2023/08/20 11:02:52;;;;;;;8.10;7.40;;;30.90;99.90;;;;;;4962825;28;20465;-73
2023/08/20 11:05:19;;;;;;;8.37;7.53;;;31.00;99.90;;;;;;4963398;28;20206;-73
2023/08/20 11:07:49;;;;;;;11.93;8.13;;;31.00;99.90;;;;;;4961686;28;20445;-73
2023/08/20 11:10:17;;;;;;;9.40;8.57;;;31.00;99.90;;;;;;4959807;28;20452;-73
2023/08/20 11:12:46;;;;;;;7.53;6.70;;;31.10;99.90;;;;;;4960144;28;20436;-73
2023/08/20 11:15:12;;;;;;;8.70;8.00;;;31.20;99.90;;;;;;4964595;28;20812;-73
2023/08/20 11:17:47;;;;;;;12.43;8.23;;;31.30;99.90;;;;;;4963592;28;20462;-73
2023/08/20 11:20:17;;;;;;;7.37;6.63;;;31.30;99.90;;;;;;4963594;28;20185;-73
2023/08/20 11:22:42;;;;;;;9.93;8.13;;;31.40;99.90;;;;;;4964391;28;20449;-73
2023/08/20 11:25:15;;;;;;;8.83;7.93;;;31.40;99.90;;;;;;4964813;28;20452;-73
2023/08/20 11:27:42;;;;;;;10.70;9.77;;;31.50;99.90;;;;;;4962280;28;20182;-73
2023/08/20 11:30:09;;;;;;;12.13;7.17;;;31.60;99.90;;;;;;4961153;28;20484;-73
2023/08/20 11:32:35;;;;;;;7.70;7.00;;;31.70;99.90;;;;;;4960828;28;20472;-73
2023/08/20 11:35:02;;;;;;;7.30;6.70;;;31.70;99.90;;;;;;4961472;28;20490;-73
2023/08/20 11:37:27;;;;;;;8.80;7.90;;;31.80;99.90;;;;;;4965347;28;20273;-73
2023/08/20 11:39:53;;;;;;;8.10;7.40;;;31.90;99.90;;;;;;4963284;28;20786;-73
2023/08/20 11:42:19;;;;;;;8.50;7.70;;;31.90;99.90;;;;;;4963861;28;20191;-73
2023/08/20 11:44:47;;;;;;;8.43;7.70;;;32.00;99.90;;;;;;4964903;28;20243;-73
2023/08/20 11:47:17;;;;;;;8.43;7.63;;;32.10;99.90;;;;;;4964218;28;20549;-73
2023/08/20 11:49:43;;;;;;;7.43;6.70;;;32.20;99.90;;;;;;4962138;28;20438;-73
2023/08/20 11:52:09;;;;;;;8.87;7.17;;;32.40;99.90;;;;;;4962625;28;20433;-73
2023/08/20 11:54:36;;;;;;;11.20;8.40;;;32.50;99.90;;;;;;4965432;28;20815;-73
2023/08/20 11:57:03;;;;;;;9.23;7.80;;;32.60;99.90;;;;;;4964534;28;20516;-73
2023/08/20 11:59:29;;;;;;;12.03;8.27;;;32.70;99.90;;;;;;4959888;28;20434;-73
2023/08/20 12:02:05;;;;;;;7.87;7.17;;;32.90;99.90;;;;;;4959996;28;20441;-73
2023/08/20 12:04:32;;;;;;;9.50;8.50;;;33.10;99.90;;;;;;4962361;28;20226;-73
2023/08/20 12:07:13;;;;;;;6.90;6.23;;;33.30;99.90;;;;;;4960011;28;20453;-73
2023/08/20 12:09:38;;;;;;;9.00;7.17;;;33.40;99.90;;;;;;4960440;28;20437;-73
2023/08/20 12:12:06;;;;;;;9.20;7.53;;;33.80;99.90;;;;;;4963872;28;20453;-73
2023/08/20 12:14:31;;;;;;;8.50;7.70;;;34.20;99.90;;;;;;4961622;28;20224;-73
2023/08/20 12:16:58;;;;;;;8.07;7.37;;;34.60;99.90;;;;;;4963577;28;21186;-73
2023/08/20 12:19:24;;;;;;;8.07;7.37;;;34.90;99.90;;;;;;4959761;28;20207;-73
2023/08/20 12:21:50;;;;;;;9.90;7.20;;;35.20;99.90;;;;;;4963640;28;21823;-73
2023/08/20 12:24:16;;;;;;;8.17;7.37;;;35.50;99.90;;;;;;4964121;28;20444;-73
2023/08/20 12:26:42;;;;;;;7.97;7.23;;;35.70;99.90;;;;;;4962429;28;20562;-73
2023/08/20 12:29:07;;;;;;;9.47;8.53;;;36.00;99.90;;;;;;4958818;28;20243;-73
2023/08/20 12:31:34;;;;;;;7.83;6.77;;;36.20;99.90;;;;;;4957413;28;20183;-73